CSAV Loncomilla — VRFB3 — position and weather

sailwx.info

Track history (hours):
 
Tides and Currents Weather Stations Pressure Air Temp Water Temp Dewpoint Dewpoint Depression Visibility Wind Speed Wind Dir Waves Ship Positions

CSAV Loncomilla

Last reported at 2017-Feb-09 13:09 UTC. Time now 2017-Feb-19 23:37 UTC.
Position N 22°15' E 120°16'.
Warning: this ship's position is 10 days out of date.

Length 261 m; draft 9.3 m.

Type: Ship (hazmat cat A). MMSI: 477207400.

Date/timePositionNaut miles runAvg speedWind from/ knotsBaromVisibWave heightAir tempDewpointWater temp
2017-Feb-09 13:09N 22°15' E 120°16'914.7
2017-Feb-09 12:33N 22°23' E 120°12'1110.9
2017-Feb-09 11:33N 22°33' E 120°17'2 1.6
2017-Feb-09 10:07N 22°34' E 120°19'0 0.0
2017-Feb-09 09:31N 22°34' E 120°19'0 0.0
2017-Feb-09 08:04N 22°34' E 120°19'0 0.0
2017-Feb-09 07:31N 22°34' E 120°19'0 0.0
2017-Feb-09 06:28N 22°34' E 120°19'0 0.0
2017-Feb-09 05:31N 22°34' E 120°19'0 0.0
2017-Feb-09 04:28N 22°34' E 120°19'0 0.0
2017-Feb-09 03:31N 22°34' E 120°19'0 0.0
2017-Feb-09 02:33N 22°34' E 120°19'3 3.2
2017-Feb-09 01:33N 22°32' E 120°16'5 5.0
2017-Feb-09 00:33N 22°31' E 120°11'1110.7
2017-Feb-08 23:33N 22°29' E 119°59'  
2017-Feb-03 11:14N 31°06' E 122°31'57271085074.7
2017-Feb-03 11:13N 50°48' W 001°07'57198588.9
2017-Feb-03 10:33N 31°06' E 122°21'5719175961.7
2017-Feb-03 10:31N 50°48' W 001°07'57025895.1
2017-Feb-03 09:33N 31°13' E 122°07'570110261756.2
2017-Feb-03 09:33N 50°49' W 001°07'56885705.1
2017-Feb-03 08:33N 31°16' E 121°52'5688386369.9
2017-Feb-03 08:33N 50°48' W 001°07'56755759.7
2017-Feb-03 07:33N 31°21' E 121°40'5675408591.5
2017-Feb-03 07:33N 50°48' W 001°07'0 0.4
2017-Feb-03 06:33N 50°48' W 001°07'5671252037.6
2017-Feb-03 06:31N 31°22' E 121°36'0 0.0
2017-Feb-03 05:31N 31°22' E 121°36'5671210464.5
2017-Feb-03 05:30N 50°48' W 001°07'0 0.4
2017-Feb-03 04:34N 50°48' W 001°07'5670144776.8
2017-Feb-03 04:31N 31°22' E 121°36'56705850.4
2017-Feb-03 03:33N 50°49' W 001°07'5670185564.8
2017-Feb-03 03:31N 31°22' E 121°36'56715867.8
2017-Feb-03 02:33N 50°48' W 001°07'5671168710.1
2017-Feb-03 02:31N 31°22' E 121°36'56705766.5
2017-Feb-03 01:32N 50°48' W 001°07'0 0.0
2017-Feb-03 00:32N 50°48' W 001°07'0 0.0
2017-Feb-02 23:32N 50°48' W 001°07'0 0.2
2017-Feb-02 22:32N 50°48' W 001°07'0 0.2
2017-Feb-02 21:32N 50°48' W 001°07'0 0.0
2017-Feb-02 20:32N 50°48' W 001°07'0 0.0
2017-Feb-02 19:32N 50°48' W 001°07'0 0.0
2017-Feb-02 18:32N 50°48' W 001°07'0 0.3
2017-Feb-02 17:28N 50°48' W 001°07'0 0.5
2017-Feb-02 16:33N 50°48' W 001°07'0 0.3
2017-Feb-02 15:31N 50°48' W 001°07'0 0.0
2017-Feb-02 14:31N 50°48' W 001°07'0 0.0
2017-Feb-02 13:31N 50°48' W 001°07'0 0.4
2017-Feb-02 12:31N 50°48' W 001°07'0 0.0
2017-Feb-02 11:31N 50°48' W 001°07'1 0.9
2017-Feb-02 10:33N 50°49' W 001°06'1 0.6
2017-Feb-02 09:32N 50°48' W 001°07'0 0.2
2017-Feb-02 08:33N 50°48' W 001°07'0 0.0
2017-Feb-02 07:33N 50°48' W 001°07'0 0.4
2017-Feb-02 06:33N 50°48' W 001°07'0 0.1
2017-Feb-02 05:33N 50°48' W 001°07'1 0.8
2017-Feb-02 04:33N 50°49' W 001°06'1 0.5
2017-Feb-02 03:33N 50°48' W 001°07'0 0.2
2017-Feb-02 02:33N 50°48' W 001°07'0 0.0
2017-Feb-02 01:33N 50°48' W 001°07'0 0.0
2017-Feb-02 00:33N 50°48' W 001°07'0 0.0
2017-Feb-01 23:30N 50°48' W 001°07'0 0.0
2017-Feb-01 22:33N 50°48' W 001°07'0 0.0
2017-Feb-01 21:33N 50°48' W 001°07'0 0.0
2017-Feb-01 20:32N 50°48' W 001°07'0 0.0
2017-Feb-01 19:32N 50°48' W 001°07'0 0.4
2017-Feb-01 18:32N 50°48' W 001°07'0 0.1
2017-Feb-01 17:33N 50°48' W 001°07'0 0.3
2017-Feb-01 16:32N 50°48' W 001°07'0 0.0
2017-Feb-01 15:25N 50°48' W 001°07'1 0.6
2017-Feb-01 14:31N 50°48' W 001°06'0 0.2
2017-Feb-01 12:33N 50°49' W 001°07'1 0.5
2017-Feb-01 11:33N 50°48' W 001°07'0 0.0
2017-Feb-01 10:33N 50°48' W 001°07'0 0.2
2017-Feb-01 09:33N 50°48' W 001°07'0 0.2
2017-Feb-01 08:27N 50°48' W 001°07'0 0.0
2017-Feb-01 07:33N 50°48' W 001°07'0 0.3
2017-Feb-01 06:23N 50°48' W 001°07'0 0.2
2017-Feb-01 05:33N 50°48' W 001°07'1 1.3
2017-Feb-01 04:33N 50°49' W 001°06'1 1.2
2017-Feb-01 03:33N 50°48' W 001°07'0 0.0
2017-Feb-01 02:33N 50°48' W 001°07'0 0.0
2017-Feb-01 01:33N 50°48' W 001°07'0 0.0
2017-Feb-01 00:32N 50°48' W 001°07'0 0.0
2017-Jan-31 23:31N 50°48' W 001°07'0 0.0
2017-Jan-31 22:31N 50°48' W 001°07'0 0.0
2017-Jan-31 21:33N 50°48' W 001°07'0 0.0
2017-Jan-31 20:28N 50°48' W 001°07'0 0.2
2017-Jan-31 19:33N 50°48' W 001°07'0 0.2
2017-Jan-31 18:33N 50°48' W 001°07'0 0.4
2017-Jan-31 17:25N 50°48' W 001°07'0 0.5
2017-Jan-31 16:32N 50°48' W 001°07'0 0.2
2017-Jan-31 15:32N 50°48' W 001°07'0 0.0
2017-Jan-31 14:32N 50°48' W 001°07'0 0.3
2017-Jan-31 13:33N 50°48' W 001°07'0 0.3
2017-Jan-31 12:32N 50°48' W 001°07'0 0.0
2017-Jan-31 11:33N 50°48' W 001°07'0 0.0
2017-Jan-31 10:33N 50°48' W 001°07'0 0.1
2017-Jan-31 09:33N 50°48' W 001°07'0 0.0
2017-Jan-31 08:31N 50°48' W 001°07'0 0.0
2017-Jan-31 07:31N 50°48' W 001°07'0 0.1
2017-Jan-31 06:33N 50°48' W 001°07'0 0.3
2017-Jan-31 05:32N 50°48' W 001°07'0 0.3
2017-Jan-31 04:33N 50°48' W 001°07'1 1.2
2017-Jan-31 03:33N 50°49' W 001°06'1 1.0
2017-Jan-31 02:31N 50°48' W 001°07'3 2.7
2017-Jan-31 01:33N 50°46' W 001°05'0 0.1
2017-Jan-31 00:32N 50°46' W 001°05'0 0.0
2017-Jan-30 23:33N 50°46' W 001°05'1 1.0
2017-Jan-30 22:33N 50°47' W 001°06'2 1.7
2017-Jan-30 21:33N 50°48' W 001°07'0 0.2
2017-Jan-30 20:26N 50°48' W 001°07'1 0.9
2017-Jan-30 19:33N 50°48' W 001°06'0 0.4
2017-Jan-30 18:31N 50°48' W 001°07'0 0.4
2017-Jan-30 17:31N 50°48' W 001°07'0 0.0
2017-Jan-30 16:31N 50°48' W 001°07'0 0.0
2017-Jan-30 15:31N 50°48' W 001°07'0 0.0
2017-Jan-30 14:31N 50°48' W 001°07'0 0.4
2017-Jan-30 13:33N 50°48' W 001°07'  
Track history (hours):
 
Tides and Currents Weather Stations Pressure Air Temp Water Temp Dewpoint Dewpoint Depression Visibility Wind Speed Wind Dir Waves Ship Positions

CSAV Loncomilla

Last reported at 2017-Feb-09 13:09 UTC. Time now 2017-Feb-19 23:37 UTC.
Position N 22°15' E 120°16'.
Warning: this ship's position is 10 days out of date.

Length 261 m; draft 9.3 m.

Type: Ship (hazmat cat A). MMSI: 477207400.

Date/timePositionNaut miles runAvg speedWind from/ knotsBaromVisibWave heightAir tempDewpointWater temp
2017-Feb-09 13:09N 22°15' E 120°16'914.7
2017-Feb-09 12:33N 22°23' E 120°12'1110.9
2017-Feb-09 11:33N 22°33' E 120°17'2 1.6
2017-Feb-09 10:07N 22°34' E 120°19'0 0.0
2017-Feb-09 09:31N 22°34' E 120°19'0 0.0
2017-Feb-09 08:04N 22°34' E 120°19'0 0.0
2017-Feb-09 07:31N 22°34' E 120°19'0 0.0
2017-Feb-09 06:28N 22°34' E 120°19'0 0.0
2017-Feb-09 05:31N 22°34' E 120°19'0 0.0
2017-Feb-09 04:28N 22°34' E 120°19'0 0.0
2017-Feb-09 03:31N 22°34' E 120°19'0 0.0
2017-Feb-09 02:33N 22°34' E 120°19'3 3.2
2017-Feb-09 01:33N 22°32' E 120°16'5 5.0
2017-Feb-09 00:33N 22°31' E 120°11'1110.7
2017-Feb-08 23:33N 22°29' E 119°59'  
2017-Feb-03 11:14N 31°06' E 122°31'57271085074.7
2017-Feb-03 11:13N 50°48' W 001°07'57198588.9
2017-Feb-03 10:33N 31°06' E 122°21'5719175961.7
2017-Feb-03 10:31N 50°48' W 001°07'57025895.1
2017-Feb-03 09:33N 31°13' E 122°07'570110261756.2
2017-Feb-03 09:33N 50°49' W 001°07'56885705.1
2017-Feb-03 08:33N 31°16' E 121°52'5688386369.9
2017-Feb-03 08:33N 50°48' W 001°07'56755759.7
2017-Feb-03 07:33N 31°21' E 121°40'5675408591.5
2017-Feb-03 07:33N 50°48' W 001°07'0 0.4
2017-Feb-03 06:33N 50°48' W 001°07'5671252037.6
2017-Feb-03 06:31N 31°22' E 121°36'0 0.0
2017-Feb-03 05:31N 31°22' E 121°36'5671210464.5
2017-Feb-03 05:30N 50°48' W 001°07'0 0.4
2017-Feb-03 04:34N 50°48' W 001°07'5670144776.8
2017-Feb-03 04:31N 31°22' E 121°36'56705850.4
2017-Feb-03 03:33N 50°49' W 001°07'5670185564.8
2017-Feb-03 03:31N 31°22' E 121°36'56715867.8
2017-Feb-03 02:33N 50°48' W 001°07'5671168710.1
2017-Feb-03 02:31N 31°22' E 121°36'56705766.5
2017-Feb-03 01:32N 50°48' W 001°07'0 0.0
2017-Feb-03 00:32N 50°48' W 001°07'0 0.0
2017-Feb-02 23:32N 50°48' W 001°07'0 0.2
2017-Feb-02 22:32N 50°48' W 001°07'0 0.2
2017-Feb-02 21:32N 50°48' W 001°07'0 0.0
2017-Feb-02 20:32N 50°48' W 001°07'0 0.0
2017-Feb-02 19:32N 50°48' W 001°07'0 0.0
2017-Feb-02 18:32N 50°48' W 001°07'0 0.3
2017-Feb-02 17:28N 50°48' W 001°07'0 0.5
2017-Feb-02 16:33N 50°48' W 001°07'0 0.3
2017-Feb-02 15:31N 50°48' W 001°07'0 0.0
2017-Feb-02 14:31N 50°48' W 001°07'0 0.0
2017-Feb-02 13:31N 50°48' W 001°07'0 0.4
2017-Feb-02 12:31N 50°48' W 001°07'0 0.0
2017-Feb-02 11:31N 50°48' W 001°07'1 0.9
2017-Feb-02 10:33N 50°49' W 001°06'1 0.6
2017-Feb-02 09:32N 50°48' W 001°07'0 0.2
2017-Feb-02 08:33N 50°48' W 001°07'0 0.0
2017-Feb-02 07:33N 50°48' W 001°07'0 0.4
2017-Feb-02 06:33N 50°48' W 001°07'0 0.1
2017-Feb-02 05:33N 50°48' W 001°07'1 0.8
2017-Feb-02 04:33N 50°49' W 001°06'1 0.5
2017-Feb-02 03:33N 50°48' W 001°07'0 0.2
2017-Feb-02 02:33N 50°48' W 001°07'0 0.0
2017-Feb-02 01:33N 50°48' W 001°07'0 0.0
2017-Feb-02 00:33N 50°48' W 001°07'0 0.0
2017-Feb-01 23:30N 50°48' W 001°07'0 0.0
2017-Feb-01 22:33N 50°48' W 001°07'0 0.0
2017-Feb-01 21:33N 50°48' W 001°07'0 0.0
2017-Feb-01 20:32N 50°48' W 001°07'0 0.0
2017-Feb-01 19:32N 50°48' W 001°07'0 0.4
2017-Feb-01 18:32N 50°48' W 001°07'0 0.1
2017-Feb-01 17:33N 50°48' W 001°07'0 0.3
2017-Feb-01 16:32N 50°48' W 001°07'0 0.0
2017-Feb-01 15:25N 50°48' W 001°07'1 0.6
2017-Feb-01 14:31N 50°48' W 001°06'0 0.2
2017-Feb-01 12:33N 50°49' W 001°07'1 0.5
2017-Feb-01 11:33N 50°48' W 001°07'0 0.0
2017-Feb-01 10:33N 50°48' W 001°07'0 0.2
2017-Feb-01 09:33N 50°48' W 001°07'0 0.2
2017-Feb-01 08:27N 50°48' W 001°07'0 0.0
2017-Feb-01 07:33N 50°48' W 001°07'0 0.3
2017-Feb-01 06:23N 50°48' W 001°07'0 0.2
2017-Feb-01 05:33N 50°48' W 001°07'1 1.3
2017-Feb-01 04:33N 50°49' W 001°06'1 1.2
2017-Feb-01 03:33N 50°48' W 001°07'0 0.0
2017-Feb-01 02:33N 50°48' W 001°07'0 0.0
2017-Feb-01 01:33N 50°48' W 001°07'0 0.0
2017-Feb-01 00:32N 50°48' W 001°07'0 0.0
2017-Jan-31 23:31N 50°48' W 001°07'0 0.0
2017-Jan-31 22:31N 50°48' W 001°07'0 0.0
2017-Jan-31 21:33N 50°48' W 001°07'0 0.0
2017-Jan-31 20:28N 50°48' W 001°07'0 0.2
2017-Jan-31 19:33N 50°48' W 001°07'0 0.2
2017-Jan-31 18:33N 50°48' W 001°07'0 0.4
2017-Jan-31 17:25N 50°48' W 001°07'0 0.5
2017-Jan-31 16:32N 50°48' W 001°07'0 0.2
2017-Jan-31 15:32N 50°48' W 001°07'0 0.0
2017-Jan-31 14:32N 50°48' W 001°07'0 0.3
2017-Jan-31 13:33N 50°48' W 001°07'0 0.3
2017-Jan-31 12:32N 50°48' W 001°07'0 0.0
2017-Jan-31 11:33N 50°48' W 001°07'0 0.0
2017-Jan-31 10:33N 50°48' W 001°07'0 0.1
2017-Jan-31 09:33N 50°48' W 001°07'0 0.0
2017-Jan-31 08:31N 50°48' W 001°07'0 0.0
2017-Jan-31 07:31N 50°48' W 001°07'0 0.1
2017-Jan-31 06:33N 50°48' W 001°07'0 0.3
2017-Jan-31 05:32N 50°48' W 001°07'0 0.3
2017-Jan-31 04:33N 50°48' W 001°07'1 1.2
2017-Jan-31 03:33N 50°49' W 001°06'1 1.0
2017-Jan-31 02:31N 50°48' W 001°07'3 2.7
2017-Jan-31 01:33N 50°46' W 001°05'0 0.1
2017-Jan-31 00:32N 50°46' W 001°05'0 0.0
2017-Jan-30 23:33N 50°46' W 001°05'1 1.0
2017-Jan-30 22:33N 50°47' W 001°06'2 1.7
2017-Jan-30 21:33N 50°48' W 001°07'0 0.2
2017-Jan-30 20:26N 50°48' W 001°07'1 0.9
2017-Jan-30 19:33N 50°48' W 001°06'0 0.4
2017-Jan-30 18:31N 50°48' W 001°07'0 0.4
2017-Jan-30 17:31N 50°48' W 001°07'0 0.0
2017-Jan-30 16:31N 50°48' W 001°07'0 0.0
2017-Jan-30 15:31N 50°48' W 001°07'0 0.0
2017-Jan-30 14:31N 50°48' W 001°07'0 0.4
2017-Jan-30 13:33N 50°48' W 001°07'  

Dump ship's entire track history